Latest Weather Observations for Wynyard

IDT60801

Issued at 9:31 am EDT Wednesday 24 October 2018 (issued every 10 minutes, with the page automatically refreshed every 10 minutes)

About weather observations | Map of weather stations | Latest weather observations for TAS | Other Formats
Station Details ID: 091107 Name: WYNYARD AIRPORT Lat: -41.00 Lon: 145.73 Height: 12.0 m
Data from the previous 72 hours. | See also: Recent months at Wynyard
Date/Time
EDT
Temp
°C
App
Temp
°C
Dew
Point
°C
Rel
Hum
%
Delta-T
°C
Wind Press
QNH
hPa
Press
MSL
hPa
Rain since
9am
mm
Dir  Spd
km/h
Gust
km/h
Spd
kts
Gust
kts
24/09:30am 11.4 8.5 4.8 64 3.0 SW 9 15 5 8 1023.3 1023.3 0.0
24/09:00am 10.0 6.6 4.2 67 2.6 WSW 11 15 6 8 1023.1 1023.1 0.0
24/08:30am 8.7 5.8 4.7 76 1.8 W 9 11 5 6 1022.9 1022.9 0.0
24/08:00am 7.1 4.2 4.8 85 1.0 WSW 9 11 5 6 1022.6 1022.6 0.0
24/07:30am 4.9 0.7 3.9 93 0.4 W 15 17 8 9 1022.4 1022.4 0.0
24/07:00am 2.5 -0.6 1.6 94 0.3 W 7 9 4 5 1021.9 1021.9 0.0
24/06:30am 1.7 -1.9 0.8 94 0.3 WNW 9 13 5 7 1021.5 1021.5 0.0
24/06:00am 1.1 -3.0 0.1 93 0.4 W 11 13 6 7 1021.0 1021.0 0.0
24/05:30am 1.2 -2.9 0.0 92 0.4 W 11 13 6 7 1020.5 1020.5 0.0
24/05:00am 2.7 -0.3 1.8 94 0.3 WSW 7 9 4 5 1020.3 1020.3 0.0
24/04:30am 2.0 -1.6 0.8 92 0.4 W 9 11 5 6 1019.9 1019.9 0.0
24/04:00am 3.0 0.2 1.8 92 0.5 WSW 6 7 3 4 1019.6 1019.6 0.0
24/03:30am 2.6 -0.9 1.0 89 0.6 W 9 11 5 6 1019.5 1019.5 0.0
24/03:00am 3.0 -1.3 1.2 88 0.7 W 13 15 7 8 1019.4 1019.4 0.0
24/02:30am 4.0 -0.5 2.4 89 0.6 W 15 17 8 9 1019.3 1019.3 0.0
24/02:00am 4.0 -0.1 2.2 88 0.7 W 13 15 7 8 1019.2 1019.2 0.0
24/01:30am 4.5 0.4 2.4 86 0.8 W 13 17 7 9 1019.1 1019.1 0.0
24/01:00am 4.1 0.0 2.3 88 0.7 W 13 17 7 9 1019.2 1019.2 0.0
24/12:30am 4.6 0.9 2.3 85 0.9 W 11 13 6 7 1018.9 1018.9 0.0
24/12:00am 5.7 2.6 3.5 86 0.9 W 9 11 5 6 1018.8 1018.8 0.0
 
Date/Time
EDT
Temp
°C
App
Temp
°C
Dew
Point
°C
Rel
Hum
%
Delta-T
°C
Wind Press
QNH
hPa
Press
MSL
hPa
Rain since
9am
mm
Dir  Spd
km/h
Gust
km/h
Spd
kts
Gust
kts
23/11:30pm 4.6 1.7 2.8 88 0.7 WSW 7 11 4 6 1018.6 1018.6 0.0
23/11:00pm 4.5 0.8 2.5 87 0.8 WSW 11 13 6 7 1018.3 1018.3 0.0
23/10:30pm 5.3 1.7 3.0 85 0.9 W 11 13 6 7 1018.1 1018.1 0.0
23/10:00pm 6.9 3.7 3.3 78 1.5 W 9 11 5 6 1017.8 1017.8 0.0
23/09:30pm 7.4 3.4 3.1 74 1.8 W 13 17 7 9 1017.5 1017.5 0.0
23/09:00pm 8.0 4.0 2.9 70 2.1 W 13 17 7 9 1017.0 1017.0 0.0
23/08:30pm 9.2 3.5 2.8 64 2.7 WSW 22 32 12 17 1016.3 1016.4 0.0
23/08:00pm 10.1 4.3 2.5 59 3.2 WSW 22 30 12 16 1015.5 1015.6 0.0
23/07:30pm 10.5 5.4 2.8 59 3.3 WSW 19 26 10 14 1014.9 1015.0 0.0
23/07:00pm 11.6 5.2 3.1 56 3.7 WSW 26 37 14 20 1014.1 1014.2 0.0
23/06:30pm 12.9 5.3 3.0 51 4.4 WSW 32 46 17 25 1013.4 1013.5 0.0
23/06:08pm 13.8 6.1 2.1 45 5.1 WSW 32 50 17 27 1012.8 1012.9 0.0
23/06:00pm 13.7 5.2 1.0 42 5.4 W 35 50 19 27 1012.8 1012.9 0.0
23/05:48pm 14.4 7.2 0.6 39 5.9 W 28 46 15 25 1012.5 1012.6 0.0
23/05:30pm 14.1 5.4 1.7 43 5.4 WSW 37 48 20 26 1012.4 1012.5 0.0
23/05:00pm 15.1 7.3 2.6 43 5.6 W 33 44 18 24 1011.7 1011.8 0.0
23/04:30pm 14.8 7.1 3.3 46 5.2 W 33 46 18 25 1011.4 1011.5 0.0
23/04:00pm 15.7 7.2 0.7 36 6.5 W 35 50 19 27 1011.0 1011.0 0.0
23/03:30pm 15.7 7.7 5.9 52 4.7 W 37 48 20 26 1010.9 1010.9 0.0
23/03:00pm 15.9 8.4 6.1 52 4.7 W 35 46 19 25 1010.8 1010.8 0.0
23/02:30pm 14.9 8.1 7.0 59 3.9 WSW 32 44 17 24 1010.8 1010.8 0.0
23/02:00pm 15.1 7.2 6.4 56 4.2 W 37 48 20 26 1011.0 1011.0 0.0
23/01:47pm 14.3 6.8 6.4 59 3.8 WSW 35 63 19 34 1010.7 1010.7 0.0
23/01:37pm 15.9 9.8 6.6 54 4.5 WNW 28 52 15 28 1010.2 1010.2 0.0
23/01:30pm 17.1 11.1 7.2 52 4.9 WNW 28 35 15 19 1010.2 1010.2 0.0
23/01:21pm 16.7 10.8 7.6 55 4.6 W 28 41 15 22 1010.4 1010.4 0.0
23/01:05pm 14.9 7.3 6.0 55 4.3 W 35 52 19 28 1010.4 1010.4 0.0
23/01:00pm 16.1 8.6 6.3 52 4.8 WNW 35 46 19 25 1010.2 1010.2 0.0
23/12:30pm 17.3 9.3 5.9 47 5.6 WNW 37 46 20 25 1010.0 1010.0 0.0
23/12:00pm 15.9 9.6 5.8 51 4.9 WNW 28 44 15 24 1010.4 1010.4 0.0
23/11:30am 16.4 10.6 8.1 58 4.2 WNW 28 39 15 21 1010.7 1010.7 0.0
23/11:00am 15.7 10.6 9.1 65 3.4 W 26 33 14 18 1010.6 1010.6 0.0
23/10:30am 14.1 10.4 9.3 73 2.5 WNW 19 26 10 14 1010.9 1010.9 0.0
23/10:00am 13.7 10.3 10.7 82 1.6 W 19 24 10 13 1010.2 1010.2 0.0
23/09:30am 12.6 11.0 11.5 93 0.6 WNW 11 15 6 8 1010.3 1010.3 0.0
23/09:00am 12.1 10.8 11.3 95 0.4 WSW 9 13 5 7 1010.3 1010.3 5.6
23/08:30am 11.8 10.4 11.0 95 0.4 W 9 11 5 6 1010.2 1010.2 5.6
23/08:00am 11.9 10.2 11.1 95 0.4 NW 11 15 6 8 1010.4 1010.4 4.4
23/07:30am 11.7 9.9 10.9 95 0.4 WNW 11 15 6 8 1010.1 1010.1 4.0
23/07:21am 11.9 9.8 11.3 96 0.3 WNW 13 17 7 9 1010.4 1010.4 3.4
23/07:08am 11.7 9.6 11.1 96 0.3 NW 13 15 7 8 1010.1 1010.1 3.2
23/07:00am 11.8 10.1 11.2 96 0.3 NW 11 15 6 8 1010.2 1010.2 2.6
23/06:30am 11.5 10.7 10.9 96 0.3 WSW 6 7 3 4 1009.0 1009.0 2.0
23/06:00am 11.5 10.1 10.9 96 0.3 W 9 11 5 6 1009.0 1009.0 2.0
23/05:36am 11.5 10.5 10.9 96 0.3 W 7 9 4 5 1009.2 1009.2 1.8
23/05:30am 11.3 10.2 10.7 96 0.3 WSW 7 9 4 5 1008.6 1008.6 1.8
23/05:19am 11.6 9.8 11.0 96 0.3 WNW 11 15 6 8 1008.7 1008.7 1.4
23/05:00am 11.6 10.6 11.0 96 0.3 WNW 7 13 4 7 1008.9 1008.9 0.6
23/04:30am 11.7 10.9 10.9 95 0.4 W 6 11 3 6 1008.4 1008.4 0.6
23/04:00am 11.3 11.1 10.5 95 0.4 SSW 2 6 1 3 1008.4 1008.4 0.0
23/03:30am 11.5 9.7 10.7 95 0.4 SW 11 15 6 8 1009.1 1009.1 0.0
23/03:00am 11.9 11.2 11.3 96 0.3 W 6 11 3 6 1008.5 1008.5 0.0
23/02:30am 11.1 8.8 10.5 96 0.3 W 13 17 7 9 1008.5 1008.5 0.0
23/02:00am 10.9 8.5 10.1 95 0.4 W 13 15 7 8 1009.0 1009.0 0.0
23/01:30am 11.3 11.1 10.5 95 0.4 WNW 2 6 1 3 1009.0 1009.0 0.0
23/01:00am 11.3 10.3 10.2 93 0.6 WNW 6 9 3 5 1009.5 1009.5 0.0
23/12:30am 12.0 11.2 11.1 94 0.5 W 6 9 3 5 1009.8 1009.8 0.0
23/12:00am 11.8 10.4 11.0 95 0.4 W 9 13 5 7 1009.9 1009.9 0.0
 
Date/Time
EDT
Temp
°C
App
Temp
°C
Dew
Point
°C
Rel
Hum
%
Delta-T
°C
Wind Press
QNH
hPa
Press
MSL
hPa
Rain since
9am
mm
Dir  Spd
km/h
Gust
km/h
Spd
kts
Gust
kts
22/11:30pm 11.7 10.8 10.8 94 0.5 SW 6 11 3 6 1010.1 1010.1 0.0
22/11:00pm 11.3 9.4 10.4 94 0.5 WSW 11 19 6 10 1010.1 1010.1 0.0
22/10:30pm 11.7 10.5 10.4 92 0.7 WSW 7 9 4 5 1010.2 1010.2 0.0
22/10:00pm 11.5 10.5 10.2 92 0.7 SE 6 11 3 6 1010.1 1010.1 0.0
22/09:30pm 11.8 10.6 10.2 90 0.8 S 7 9 4 5 1010.3 1010.3 0.0
22/09:00pm 11.9 10.7 10.3 90 0.8 S 7 9 4 5 1010.2 1010.2 0.0
22/08:30pm 12.8 11.5 11.2 90 0.8 SE 9 13 5 7 1009.7 1009.7 0.0
22/08:00pm 13.3 11.0 11.9 91 0.8 ESE 15 24 8 13 1009.6 1009.6 0.0
22/07:30pm 13.5 11.2 11.7 89 1.0 ESE 15 22 8 12 1009.5 1009.5 0.0
22/07:00pm 14.0 10.9 11.7 86 1.2 E 19 26 10 14 1009.5 1009.5 0.0
22/06:30pm 14.6 11.6 12.1 85 1.4 ESE 19 26 10 14 1009.4 1009.4 0.0
22/06:00pm 14.8 11.8 11.8 82 1.6 E 19 24 10 13 1009.5 1009.5 0.0
22/05:30pm 15.2 12.1 12.2 82 1.6 E 20 28 11 15 1009.5 1009.5 0.0
22/05:00pm 15.3 12.4 12.4 83 1.6 ESE 19 26 10 14 1009.9 1009.9 0.0
22/04:30pm 15.4 12.9 12.3 82 1.7 E 17 26 9 14 1009.8 1009.8 0.0
22/04:02pm 15.0 12.6 11.4 79 1.9 E 15 22 8 12 1010.2 1010.2 0.0
22/04:00pm 15.4 13.2 12.2 81 1.7 E 15 22 8 12 1010.2 1010.2 0.0
22/03:30pm 15.8 13.4 12.5 81 1.8 ENE 17 22 9 12 1010.6 1010.6 0.0
22/03:20pm 15.1 12.3 11.5 79 1.9 ENE 17 22 9 12 1010.8 1010.8 0.0
22/03:00pm 15.9 14.2 12.5 80 1.9 E 13 22 7 12 1011.0 1011.0 0.0
22/02:56pm 15.7 13.6 12.3 80 1.9 E 15 22 8 12 1011.0 1011.0 0.0
22/02:40pm 15.5 12.9 12.1 80 1.9 E 17 24 9 13 1011.2 1011.2 0.0
22/02:30pm 15.7 13.5 12.1 79 2.0 E 15 22 8 12 1011.4 1011.5 0.0
22/02:04pm 15.1 12.7 11.5 79 1.9 E 15 20 8 11 1011.8 1011.9 0.0
22/02:00pm 15.1 12.3 11.5 79 1.9 E 17 24 9 13 1011.8 1011.9 0.0
22/01:53pm 15.0 12.1 11.0 77 2.1 E 17 24 9 13 1011.7 1011.8 0.0
22/01:30pm 15.9 13.8 12.3 79 2.0 ENE 15 22 8 12 1011.9 1012.0 0.0
22/01:00pm 15.0 12.2 11.2 78 2.0 ENE 17 24 9 13 1012.0 1012.1 0.0
22/12:38pm 16.0 13.9 12.4 79 2.0 ENE 15 24 8 13 1012.2 1012.3 0.0
22/12:30pm 15.9 13.8 12.5 80 1.9 NE 15 22 8 12 1012.4 1012.5 0.0
22/12:00pm 15.9 14.1 12.1 78 2.1 NE 13 19 7 10 1013.0 1013.1 0.0
22/11:30am 15.7 13.4 11.9 78 2.1 NE 15 20 8 11 1013.1 1013.2 0.0
22/11:03am 15.4 13.1 11.6 78 2.0 NE 15 20 8 11 1013.2 1013.3 0.0
22/11:00am 15.4 13.1 11.6 78 2.0 NE 15 20 8 11 1013.3 1013.4 0.0
22/10:52am 15.6 13.4 12.0 79 2.0 NNE 15 20 8 11 1013.4 1013.5 0.0
22/10:51am 15.6 13.4 12.2 80 1.9 NNE 15 20 8 11 1013.4 1013.5 0.0
22/10:30am 14.7 13.5 11.5 81 1.7 E 9 15 5 8 1013.6 1013.7 0.0
22/10:00am 13.5 11.6 10.5 82 1.6 ENE 11 15 6 8 1013.4 1013.5 0.0
22/09:46am 13.3 11.3 10.1 81 1.7 ENE 11 15 6 8 1013.5 1013.6 0.0
22/09:30am 13.5 11.9 10.3 81 1.7 ENE 9 13 5 7 1013.6 1013.7 0.0
22/09:28am 13.4 11.8 10.2 81 1.7 ENE 9 13 5 7 1013.6 1013.7 0.0
22/09:00am 13.5 12.6 11.2 86 1.2 ENE 7 11 4 6 1013.7 1013.8 0.0
22/08:31am 11.5 11.0 10.7 95 0.4 W 4 6 2 3 1013.8 1013.9 0.0
22/08:30am 11.6 11.5 10.8 95 0.4 W 2 6 1 3 1013.8 1013.9 0.0
22/08:00am 9.5 8.1 9.0 97 0.2 W 6 9 3 5 1013.6 1013.7 0.0
22/07:51am 9.2 7.8 8.7 97 0.2 W 6 7 3 4 1013.5 1013.6 0.0
22/07:30am 8.3 6.5 7.9 97 0.2 W 7 9 4 5 1013.4 1013.5 0.0
22/07:00am 7.5 5.5 7.2 98 0.1 SSW 7 11 4 6 1013.2 1013.3 0.0
22/06:30am 6.5 4.3 6.2 98 0.1 W 7 7 4 4 1013.3 1013.4 0.0
22/06:07am 5.2 2.3 4.8 97 0.2 W 9 11 5 6 1013.3 1013.4 0.0
22/06:00am 4.3 1.2 3.7 96 0.2 W 9 9 5 5 1013.2 1013.3 0.0
22/05:30am 5.0 1.7 4.4 96 0.3 W 11 13 6 7 1013.2 1013.3 0.0
22/05:00am 4.9 2.3 4.3 96 0.3 WNW 7 9 4 5 1013.1 1013.2 0.0
22/04:30am 6.1 3.8 5.5 96 0.3 WSW 7 9 4 5 1013.1 1013.2 0.0
22/04:00am 5.1 2.2 4.4 95 0.3 W 9 11 5 6 1013.3 1013.4 0.0
22/03:30am 6.1 3.4 5.4 95 0.3 WNW 9 11 5 6 1013.4 1013.5 0.0
22/03:00am 5.9 3.5 5.2 95 0.3 W 7 11 4 6 1013.3 1013.4 0.0
22/02:30am 7.4 5.9 6.7 95 0.3 WSW 4 6 2 3 1013.6 1013.7 0.0
22/02:00am 6.6 4.3 5.6 93 0.4 W 7 9 4 5 1013.9 1014.0 0.0
22/01:30am 6.6 3.9 5.6 93 0.4 W 9 11 5 6 1014.3 1014.4 0.0
22/01:00am 7.8 4.2 6.7 93 0.5 W 15 15 8 8 1014.7 1014.8 0.0
22/12:30am 8.1 5.3 7.0 93 0.5 WNW 11 13 6 7 1014.9 1015.0 0.0
22/12:00am 7.9 5.0 6.5 91 0.6 W 11 13 6 7 1015.0 1015.1 0.0
 
Date/Time
EDT
Temp
°C
App
Temp
°C
Dew
Point
°C
Rel
Hum
%
Delta-T
°C
Wind Press
QNH
hPa
Press
MSL
hPa
Rain since
9am
mm
Dir  Spd
km/h
Gust
km/h
Spd
kts
Gust
kts
21/11:30pm 9.1 6.0 7.4 89 0.8 WNW 13 13 7 7 1015.3 1015.4 0.0
21/11:00pm 10.3 7.7 7.9 85 1.2 WNW 11 11 6 6 1015.5 1015.6 0.0
21/10:30pm 10.3 7.3 7.9 85 1.2 WNW 13 15 7 8 1015.7 1015.8 0.0
21/10:00pm 10.9 7.6 8.1 83 1.4 W 15 19 8 10 1015.6 1015.7 0.0
21/09:30pm 11.6 8.4 8.3 80 1.6 W 15 17 8 9 1015.5 1015.6 0.0
21/09:00pm 12.6 8.7 8.5 76 2.0 W 19 22 10 12 1015.5 1015.6 0.0
21/08:30pm 13.0 9.1 8.5 74 2.2 W 19 22 10 12 1015.3 1015.4 0.0
21/08:00pm 13.8 9.6 8.4 70 2.7 WNW 20 26 11 14 1015.0 1015.1 0.0
21/07:30pm 14.9 10.7 8.4 65 3.3 W 20 26 11 14 1014.6 1014.7 0.0
21/07:00pm 16.1 12.0 8.8 62 3.7 W 20 28 11 15 1014.3 1014.4 0.0
21/06:30pm 16.8 12.4 8.8 59 4.1 W 22 28 12 15 1014.1 1014.2 0.0
21/06:00pm 17.5 12.2 8.4 55 4.7 W 26 37 14 20 1014.0 1014.1 0.0
21/05:30pm 18.0 13.3 9.1 56 4.6 W 24 32 13 17 1014.1 1014.2 0.0
21/05:00pm 17.5 14.4 11.5 68 3.3 NW 19 24 10 13 1014.3 1014.4 0.0
21/04:30pm 16.3 11.5 11.5 73 2.6 NW 28 35 15 19 1014.3 1014.4 0.0
21/04:00pm 17.1 11.3 10.9 67 3.3 NW 32 41 17 22 1014.6 1014.7 0.0
21/03:30pm 17.8 11.6 10.2 61 4.0 NW 33 43 18 23 1014.8 1014.9 0.0
21/03:00pm 19.2 13.9 9.9 55 5.0 WNW 28 39 15 21 1015.1 1015.2 0.0
21/02:30pm 18.0 12.0 8.6 54 4.9 WNW 30 37 16 20 1015.3 1015.4 0.0
21/02:00pm 18.9 13.8 9.1 53 5.1 W 26 32 14 17 1015.8 1015.9 0.0
21/01:30pm 18.8 14.0 7.3 47 5.8 WNW 22 32 12 17 1015.9 1016.0 0.0
21/01:00pm 18.0 13.7 7.1 49 5.5 WNW 19 28 10 15 1016.2 1016.3 0.0
21/12:30pm 18.6 15.2 7.7 49 5.6 NW 15 24 8 13 1016.3 1016.4 0.0
21/12:00pm 17.0 13.5 5.3 46 5.6 WSW 13 26 7 14 1016.8 1016.9 0.0
21/11:30am 17.1 14.7 7.2 52 4.9 W 9 22 5 12 1017.1 1017.1 0.0
21/11:00am 16.5 12.9 6.9 53 4.7 WSW 15 22 8 12 1017.4 1017.4 0.0
21/10:30am 15.7 12.2 7.2 57 4.2 WSW 15 22 8 12 1017.6 1017.6 0.0
21/10:00am 15.0 10.7 6.8 58 4.0 WSW 19 28 10 15 1017.8 1017.8 0.0

Other Formats:

Comma delimited format used in spreadsheet applications
http://www.bom.gov.au/fwo/IDT60801/IDT60801.95957.axf

JavaScript Object Notation format (JSON) in row-major order
http://www.bom.gov.au/fwo/IDT60801/IDT60801.95957.json